Главная страница
METAR-TAF:

METAR-TAF

Аэропорты :

Winchester Regional Airport

Винчестер, Виргиния, США

широта: 39-09N, долгота: 078-09W, высота над уровнем моря: 222 м

Текущие метеонаблюдения

Эта сводка был подготовлена 20 минут назад, в 22:35 UTC
Штиль
Температура 4°C
Влажность 87%
Давление 1023 hPa
Видимость: 16.1 км
ясное небо

METAR: KOKV 182235Z AUTO 00000KT 10SM CLR 04/02 A3020 RMK AO2

Время: 17:55 (22:55 UTC)


TAF: отсутствует

Метеонаблюдения и прогнозы для более 4000 аэропортов (сводки METAR и TAF).

Имеющиеся станции представлены на карте желтыми и красными точками.

Чтобы увидеть название станции, наведите на нее мышь.

Затем щелкните, чтобы увидеть метеонаблюдения и метеопрогнозы.

Управление картой: чтобы увеличить масштаб, щелкните зеленые кнопки с черным крестиком; чтобы уменьшить масштаб, щелкните зеленую кнопку с тире; для просмотра соседних карт щелкайте зеленые стрелки.


METAR-TAF: